WSAP/QPG METAR and TAF weather

Enter ICAO airport designator
Station Type Date Time Source
WSAP METAR 2020/11/27 15:00 UTC NOAA

WSAP 271500Z 05003KT 9999 FEW016 BKN150 28/25 Q1011


Station Type Date Time Source
WSAP Decoded METAR 2020/11/27 15:00 UTC NOAA

Singapore / Paya Lebar, Singapore (WSAP) 01-22N 103-55E 32M
Nov 27, 2020 - 10:00 AM EST / 2020.11.27 1500 UTC
Wind: from the NE (050 degrees) at 3 MPH (3 KT):0
Visibility: greater than 7 mile(s):0
Sky conditions: mostly cloudy
Temperature: 82 F (28 C)
Dew Point: 77 F (25 C)
Relative Humidity: 83%
Pressure (altimeter): 29.85 in. Hg (1011 hPa)
ob: WSAP 271500Z 05003KT 9999 FEW016 BKN150 28/25 Q1011
cycle: 15

Station Type Date Time Source
WSAP TAF 2020/11/27 12:09 UTC NOAA

TAF WSAP 271100Z 2712/2818 34006KT 9999 FEW015 SCT020
TEMPO 2806/2809 3000 TSRA FEW012CB BKN015

Example: see airport list